createdAt,value
2017-12-14T00:01:24.921Z,8.30
2017-12-14T00:03:52.357Z,7.65
2017-12-14T00:06:19.792Z,11.35
2017-12-14T00:08:47.327Z,7.65
2017-12-14T00:11:14.753Z,6.43
2017-12-14T00:13:42.191Z,7.62
2017-12-14T00:16:09.648Z,7.80
2017-12-14T00:18:37.068Z,6.93
2017-12-14T00:21:04.890Z,5.78
2017-12-14T00:23:32.333Z,6.00
2017-12-14T00:25:59.760Z,7.35
2017-12-14T00:28:27.185Z,6.70
2017-12-14T00:30:55.116Z,6.97
2017-12-14T00:33:22.541Z,7.57
2017-12-14T00:35:49.965Z,6.30
2017-12-14T00:38:18.058Z,6.43
2017-12-14T00:40:45.480Z,6.20
2017-12-14T00:43:12.904Z,7.78
2017-12-14T00:45:40.615Z,4.85
2017-12-14T00:48:08.043Z,7.62
2017-12-14T00:50:35.468Z,7.12
2017-12-14T00:53:03.124Z,8.55
2017-12-14T00:55:30.545Z,9.93
2017-12-14T00:57:57.972Z,7.82
2017-12-14T01:00:25.425Z,9.02
2017-12-14T01:02:52.856Z,8.95
2017-12-14T01:05:20.282Z,8.38
2017-12-14T01:07:47.735Z,7.82
2017-12-14T01:10:15.157Z,8.00
2017-12-14T01:12:42.980Z,10.95
2017-12-14T01:15:10.629Z,8.10
2017-12-14T01:17:38.052Z,6.00
2017-12-14T01:20:05.477Z,9.35
2017-12-14T01:22:33.305Z,9.48
2017-12-14T01:25:00.737Z,10.05
2017-12-14T01:27:28.417Z,8.30
2017-12-14T01:29:55.835Z,8.63
2017-12-14T01:32:23.265Z,8.00
2017-12-14T01:34:51.093Z,7.28
2017-12-14T01:37:18.524Z,9.20
2017-12-14T01:39:45.944Z,5.60
2017-12-14T01:42:13.794Z,7.40
2017-12-14T01:44:41.197Z,5.75
2017-12-14T01:47:08.868Z,6.37
2017-12-14T01:49:36.306Z,4.93
2017-12-14T01:52:03.725Z,5.00
2017-12-14T01:54:31.654Z,5.25
2017-12-14T01:56:59.091Z,5.60
2017-12-14T01:59:26.520Z,4.93
2017-12-14T02:01:53.964Z,6.70
2017-12-14T02:04:21.792Z,7.05
2017-12-14T02:06:49.224Z,9.25
2017-12-14T02:09:16.934Z,6.45
2017-12-14T02:11:44.760Z,5.80
2017-12-14T02:14:12.188Z,9.10
2017-12-14T02:16:39.648Z,8.50
2017-12-14T02:19:07.099Z,8.57
2017-12-14T02:21:34.515Z,9.80
2017-12-14T02:24:02.373Z,8.05
2017-12-14T02:26:29.798Z,9.98
2017-12-14T02:28:57.237Z,9.55
2017-12-14T02:31:24.684Z,10.80
2017-12-14T02:33:52.121Z,12.95
2017-12-14T02:36:19.554Z,10.20
2017-12-14T02:38:47.412Z,9.23
2017-12-14T02:41:15.248Z,10.75
2017-12-14T02:43:42.686Z,10.13
2017-12-14T02:46:10.140Z,9.60
2017-12-14T02:48:37.573Z,6.28
2017-12-14T02:51:05.004Z,7.00
2017-12-14T02:53:32.849Z,7.62
2017-12-14T02:56:00.284Z,8.77
2017-12-14T02:58:27.730Z,11.70
2017-12-14T03:00:55.193Z,6.95
2017-12-14T03:03:22.618Z,8.88
2017-12-14T03:05:50.052Z,9.13
2017-12-14T03:08:17.889Z,7.30
2017-12-14T03:10:45.332Z,8.77
2017-12-14T03:13:12.768Z,13.20
2017-12-14T03:15:40.226Z,12.18
2017-12-14T03:18:07.652Z,9.68
2017-12-14T03:20:35.084Z,8.23
2017-12-14T03:23:02.923Z,7.97
2017-12-14T03:25:30.349Z,12.15
2017-12-14T03:27:57.901Z,5.68
2017-12-14T03:30:25.337Z,5.45
2017-12-14T03:32:52.771Z,8.60
2017-12-14T03:35:20.699Z,7.55
2017-12-14T03:37:48.141Z,6.37
2017-12-14T03:40:15.568Z,6.90
2017-12-14T03:42:43.016Z,5.35
2017-12-14T03:45:10.450Z,5.40
2017-12-14T03:47:38.277Z,9.20
2017-12-14T03:50:05.716Z,8.40
2017-12-14T03:52:33.345Z,5.80
2017-12-14T03:55:00.773Z,9.40
2017-12-14T03:57:28.200Z,4.28
2017-12-14T03:59:55.648Z,5.03
2017-12-14T04:02:23.080Z,12.27
2017-12-14T04:04:50.515Z,12.82
2017-12-14T04:07:18.327Z,10.52
2017-12-14T04:09:46.017Z,5.57
2017-12-14T04:12:13.839Z,6.62
2017-12-14T04:14:41.297Z,6.60
2017-12-14T04:17:08.719Z,4.12
2017-12-14T04:19:36.154Z,5.97
2017-12-14T04:22:04.176Z,9.05
2017-12-14T04:24:31.608Z,6.70
2017-12-14T04:26:59.040Z,4.05
2017-12-14T04:29:27.767Z,9.25
2017-12-14T04:31:55.212Z,8.55
2017-12-14T04:34:22.644Z,8.52
2017-12-14T04:36:50.082Z,7.32
2017-12-14T04:39:17.909Z,6.40
2017-12-14T04:41:45.344Z,9.88
2017-12-14T04:44:13.553Z,5.57
2017-12-14T04:46:40.984Z,5.35
2017-12-14T04:49:08.429Z,11.90
2017-12-14T04:51:35.987Z,10.57
2017-12-14T04:54:03.421Z,13.95
2017-12-14T04:56:30.852Z,13.00
2017-12-14T04:58:58.793Z,8.10
2017-12-14T05:01:26.237Z,15.20
2017-12-14T05:03:53.671Z,12.20
2017-12-14T05:06:21.115Z,13.35
2017-12-14T05:08:48.549Z,16.87
2017-12-14T05:11:15.988Z,11.23
2017-12-14T05:13:43.824Z,7.50
2017-12-14T05:16:11.260Z,10.23
2017-12-14T05:18:38.688Z,12.98
2017-12-14T05:21:08.120Z,15.20
2017-12-14T05:23:35.548Z,21.40
2017-12-14T05:26:02.985Z,12.88
2017-12-14T05:28:30.421Z,16.23
2017-12-14T05:30:58.248Z,15.43
2017-12-14T05:33:25.699Z,13.02
2017-12-14T05:35:53.129Z,10.65
2017-12-14T05:38:20.556Z,14.70
2017-12-14T05:40:48.400Z,13.45
2017-12-14T05:43:15.836Z,15.82
2017-12-14T05:45:43.275Z,19.17
2017-12-14T05:48:10.726Z,25.55
2017-12-14T05:50:38.160Z,14.80
2017-12-14T05:53:05.596Z,13.45
2017-12-14T05:55:33.615Z,10.27
2017-12-14T05:58:01.063Z,12.73
2017-12-14T06:00:28.496Z,15.70
2017-12-14T06:02:56.138Z,11.55
2017-12-14T06:05:23.960Z,13.15
2017-12-14T06:07:51.396Z,9.90
2017-12-14T06:10:18.851Z,13.75
2017-12-14T06:12:46.288Z,12.10
2017-12-14T06:15:13.718Z,32.40
2017-12-14T06:17:41.552Z,13.25
2017-12-14T06:20:08.985Z,14.98
2017-12-14T06:22:36.644Z,10.25
2017-12-14T06:25:04.078Z,11.60
2017-12-14T06:27:31.503Z,9.40
2017-12-14T06:29:59.336Z,13.93
2017-12-14T06:32:26.771Z,17.12
2017-12-14T06:34:54.223Z,10.73
2017-12-14T06:37:21.656Z,15.35
2017-12-14T06:39:49.087Z,15.27
2017-12-14T06:42:16.929Z,11.85
2017-12-14T06:44:44.360Z,10.88
2017-12-14T06:47:11.792Z,14.43
2017-12-14T06:49:39.227Z,13.00
2017-12-14T06:52:06.924Z,17.48
2017-12-14T06:54:34.356Z,23.35
2017-12-14T06:57:01.795Z,20.10
2017-12-14T06:59:30.002Z,12.52
2017-12-14T07:01:57.438Z,14.00
2017-12-14T07:04:24.871Z,15.98
2017-12-14T07:06:52.996Z,14.20
2017-12-14T07:09:20.429Z,14.50
2017-12-14T07:11:47.869Z,16.20
2017-12-14T07:14:15.320Z,14.70
2017-12-14T07:16:42.765Z,9.10
2017-12-14T07:19:10.181Z,17.20
2017-12-14T07:21:37.923Z,15.15
2017-12-14T07:24:05.354Z,19.20
2017-12-14T07:26:32.789Z,12.88
2017-12-14T07:29:00.649Z,11.60
2017-12-14T07:31:28.476Z,19.50
2017-12-14T07:33:55.920Z,14.90
2017-12-14T07:36:23.377Z,14.13
2017-12-14T07:38:50.804Z,24.00
2017-12-14T07:41:18.232Z,12.82
2017-12-14T07:43:57.978Z,12.50
2017-12-14T07:46:31.744Z,13.18
2017-12-14T07:49:13.266Z,14.07
2017-12-14T07:51:41.096Z,15.88
2017-12-14T07:54:08.534Z,12.98
2017-12-14T07:56:35.980Z,13.60
2017-12-14T07:59:03.421Z,18.15
2017-12-14T08:01:30.869Z,19.40
2017-12-14T08:03:58.299Z,14.52
2017-12-14T08:06:26.131Z,14.05
2017-12-14T08:08:55.497Z,14.48
2017-12-14T08:11:22.910Z,14.10
2017-12-14T08:13:50.737Z,21.10
2017-12-14T08:16:18.195Z,15.27
2017-12-14T08:18:45.624Z,14.87
2017-12-14T08:21:13.064Z,17.33
2017-12-14T08:23:40.507Z,24.87
2017-12-14T08:26:08.335Z,19.08
2017-12-14T08:28:35.775Z,16.83
2017-12-14T08:31:03.374Z,23.05
2017-12-14T08:33:30.782Z,19.35
2017-12-14T08:35:58.216Z,11.67
2017-12-14T08:38:25.672Z,21.60
2017-12-14T08:40:53.103Z,13.90
2017-12-14T08:43:20.931Z,18.30
2017-12-14T08:45:48.378Z,23.10
2017-12-14T08:48:15.804Z,11.32
2017-12-14T08:50:43.260Z,15.60
2017-12-14T08:53:10.696Z,21.13
2017-12-14T08:55:38.124Z,12.77
2017-12-14T08:58:05.948Z,12.30
2017-12-14T09:00:33.380Z,14.63
2017-12-14T09:03:00.811Z,13.18
2017-12-14T09:05:28.260Z,28.10
2017-12-14T09:07:56.142Z,12.90
2017-12-14T09:10:23.524Z,14.63
2017-12-14T09:12:51.291Z,11.95
2017-12-14T09:15:18.741Z,11.77
2017-12-14T09:17:46.176Z,14.30
2017-12-14T09:20:13.612Z,15.30
2017-12-14T09:22:41.437Z,17.50
2017-12-14T09:25:08.893Z,20.35
2017-12-14T09:27:36.311Z,13.90
2017-12-14T09:30:03.749Z,17.02
2017-12-14T09:32:31.228Z,21.90
2017-12-14T09:34:58.652Z,16.60
2017-12-14T09:37:26.475Z,21.17
2017-12-14T09:39:53.915Z,20.60
2017-12-14T09:42:21.356Z,15.43
2017-12-14T09:44:48.800Z,18.97
2017-12-14T09:47:16.234Z,18.67
2017-12-14T09:49:44.059Z,22.27
2017-12-14T09:52:11.499Z,13.07
2017-12-14T09:54:39.156Z,15.85
2017-12-14T09:57:06.592Z,15.35
2017-12-14T09:59:34.015Z,16.50
2017-12-14T10:02:01.853Z,14.83
2017-12-14T10:04:29.288Z,11.00
2017-12-14T10:06:56.723Z,12.00
2017-12-14T10:09:24.160Z,15.27
2017-12-14T10:11:51.595Z,14.40
2017-12-14T10:14:19.448Z,12.83
2017-12-14T10:16:46.880Z,13.00
2017-12-14T10:19:14.301Z,12.80
2017-12-14T10:21:41.749Z,11.30
2017-12-14T10:24:09.177Z,11.30
2017-12-14T10:26:37.013Z,10.40
2017-12-14T10:29:04.447Z,10.37
2017-12-14T10:31:31.879Z,10.70
2017-12-14T10:33:59.600Z,11.23
2017-12-14T10:36:27.033Z,9.33
2017-12-14T10:38:54.472Z,11.40
2017-12-14T10:41:21.926Z,10.47
2017-12-14T10:43:49.362Z,13.80
2017-12-14T10:46:16.793Z,11.40
2017-12-14T10:48:44.737Z,11.60
2017-12-14T10:51:12.173Z,10.83
2017-12-14T10:53:39.595Z,12.30
2017-12-14T10:56:07.198Z,9.55
2017-12-14T10:58:34.628Z,12.80
2017-12-14T11:01:07.896Z,12.65
2017-12-14T11:03:35.360Z,11.60
2017-12-14T11:06:02.788Z,11.05
2017-12-14T11:08:30.611Z,7.57
2017-12-14T11:10:58.053Z,6.05
2017-12-14T11:13:25.525Z,9.65
2017-12-14T11:15:52.948Z,7.85
2017-12-14T11:18:20.372Z,9.70
2017-12-14T11:20:47.812Z,9.50
2017-12-14T11:23:15.640Z,6.75
2017-12-14T11:25:43.197Z,6.72
2017-12-14T11:28:10.736Z,8.13
2017-12-14T11:30:38.173Z,6.53
2017-12-14T11:33:05.604Z,6.50
2017-12-14T11:35:34.243Z,7.82
2017-12-14T11:38:01.722Z,9.05
2017-12-14T11:40:29.148Z,5.60
2017-12-14T11:42:56.601Z,6.45
2017-12-14T11:45:24.024Z,8.40
2017-12-14T11:47:51.458Z,6.15
2017-12-14T11:50:19.581Z,7.82
2017-12-14T11:52:47.012Z,6.55
2017-12-14T11:55:14.436Z,7.15
2017-12-14T11:57:42.286Z,6.65
2017-12-14T12:00:09.713Z,5.40
2017-12-14T12:02:37.144Z,6.70
2017-12-14T12:05:04.584Z,7.07
2017-12-14T12:07:32.019Z,6.85
2017-12-14T12:10:00.371Z,8.00
2017-12-14T12:12:27.816Z,11.63
2017-12-14T12:14:55.257Z,8.25
2017-12-14T12:17:22.689Z,6.22
2017-12-14T12:19:50.131Z,7.80
2017-12-14T12:22:17.958Z,5.95
2017-12-14T12:24:45.596Z,6.85
2017-12-14T12:27:13.025Z,6.10
2017-12-14T12:29:40.447Z,5.32
2017-12-14T12:32:08.281Z,6.25
2017-12-14T12:34:35.744Z,8.90
2017-12-14T12:37:03.175Z,10.20
2017-12-14T12:39:30.609Z,7.70
2017-12-14T12:41:58.048Z,6.87
2017-12-14T12:44:25.682Z,7.18
2017-12-14T12:46:53.108Z,7.85
2017-12-14T12:49:20.763Z,10.37
2017-12-14T12:51:48.211Z,8.68
2017-12-14T12:54:15.640Z,8.43
2017-12-14T12:56:43.372Z,7.80
2017-12-14T12:59:11.208Z,9.50
2017-12-14T13:01:38.641Z,9.07
2017-12-14T13:04:06.106Z,10.68
2017-12-14T13:06:33.528Z,6.53
2017-12-14T13:09:00.963Z,10.65
2017-12-14T13:11:29.704Z,9.07
2017-12-14T13:13:57.136Z,8.15
2017-12-14T13:16:24.564Z,6.32
2017-12-14T13:18:52.417Z,8.68
2017-12-14T13:21:20.243Z,9.82
2017-12-14T13:23:47.672Z,7.82
2017-12-14T13:26:15.450Z,9.73
2017-12-14T13:28:42.889Z,9.05
2017-12-14T13:31:10.316Z,9.70
2017-12-14T13:33:38.160Z,11.27
2017-12-14T13:36:05.597Z,9.93
2017-12-14T13:38:33.023Z,8.13
2017-12-14T13:41:00.468Z,7.97
2017-12-14T13:43:27.908Z,9.50
2017-12-14T13:45:55.346Z,8.70
2017-12-14T13:48:23.212Z,12.17
2017-12-14T13:50:50.633Z,8.93
2017-12-14T13:53:18.068Z,7.70
2017-12-14T13:55:45.507Z,11.82
2017-12-14T13:58:12.941Z,10.85
2017-12-14T14:00:40.771Z,13.60
2017-12-14T14:03:08.240Z,11.18
2017-12-14T14:05:35.670Z,10.47
2017-12-14T14:08:03.100Z,8.85
2017-12-14T14:10:30.544Z,10.38
2017-12-14T14:12:57.976Z,13.48
2017-12-14T14:15:25.991Z,8.57
2017-12-14T14:17:53.428Z,10.18
2017-12-14T14:20:20.858Z,7.60
2017-12-14T14:22:49.019Z,8.60
2017-12-14T14:25:16.850Z,8.70
2017-12-14T14:27:44.280Z,8.65
2017-12-14T14:30:11.824Z,20.23
2017-12-14T14:32:39.263Z,9.07
2017-12-14T14:35:07.103Z,11.60
2017-12-14T14:37:34.559Z,7.47
2017-12-14T14:40:01.975Z,10.43
2017-12-14T14:42:29.421Z,10.50
2017-12-14T14:44:56.848Z,13.38
2017-12-14T14:47:24.677Z,10.68
2017-12-14T14:49:52.308Z,14.10
2017-12-14T14:52:19.739Z,18.52
2017-12-14T14:54:47.180Z,10.60
2017-12-14T14:57:15.022Z,11.75
2017-12-14T14:59:42.449Z,18.25
2017-12-14T15:02:09.892Z,12.82
2017-12-14T15:04:37.551Z,14.00
2017-12-14T15:07:04.989Z,14.10
2017-12-14T15:09:32.416Z,12.98
2017-12-14T15:12:00.532Z,8.13
2017-12-14T15:14:27.965Z,15.13
2017-12-14T15:16:55.406Z,12.82
2017-12-14T15:19:22.948Z,10.60
2017-12-14T15:21:50.777Z,10.10
2017-12-14T15:24:18.216Z,14.50
2017-12-14T15:26:45.653Z,11.95
2017-12-14T15:29:13.104Z,12.85
2017-12-14T15:31:40.536Z,8.02
2017-12-14T15:34:08.418Z,12.90
2017-12-14T15:36:35.860Z,11.40
2017-12-14T15:39:03.691Z,9.38
2017-12-14T15:41:31.133Z,11.27
2017-12-14T15:43:58.581Z,9.88
2017-12-14T15:46:26.039Z,9.02
2017-12-14T15:48:53.466Z,12.32
2017-12-14T15:51:20.904Z,11.02
2017-12-14T15:53:48.340Z,11.53
2017-12-14T15:56:16.463Z,11.37
2017-12-14T15:58:43.900Z,17.02
2017-12-14T16:01:11.336Z,8.98
2017-12-14T16:03:38.783Z,18.80
2017-12-14T16:06:06.613Z,12.50
2017-12-14T16:08:34.047Z,11.40
2017-12-14T16:11:01.491Z,6.53
2017-12-14T16:13:28.920Z,10.52
2017-12-14T16:15:56.356Z,14.05
2017-12-14T16:18:24.077Z,7.67
2017-12-14T16:20:51.509Z,19.25
2017-12-14T16:23:18.944Z,10.60
2017-12-14T16:25:46.381Z,10.70
2017-12-14T16:28:14.212Z,9.03
2017-12-14T16:30:41.664Z,11.95
2017-12-14T16:33:09.096Z,8.77
2017-12-14T16:35:36.528Z,10.77
2017-12-14T16:38:03.993Z,9.07
2017-12-14T16:40:31.419Z,6.68
2017-12-14T16:42:59.252Z,11.80
2017-12-14T16:45:26.707Z,11.00
2017-12-14T16:47:54.136Z,13.23
2017-12-14T16:50:21.568Z,11.77
2017-12-14T16:52:49.011Z,12.95
2017-12-14T16:55:16.839Z,12.85
2017-12-14T16:57:44.284Z,11.43
2017-12-14T17:00:11.733Z,13.02
2017-12-14T17:02:39.170Z,14.85
2017-12-14T17:05:06.597Z,10.23
2017-12-14T17:07:34.436Z,10.85
2017-12-14T17:10:01.877Z,15.25
2017-12-14T17:12:29.304Z,12.00
2017-12-14T17:14:56.768Z,11.38
2017-12-14T17:17:24.200Z,16.73
2017-12-14T17:19:51.636Z,11.60
2017-12-14T17:22:19.467Z,12.95
2017-12-14T17:24:46.902Z,13.93
2017-12-14T17:27:14.332Z,16.25
2017-12-14T17:29:41.768Z,15.80
2017-12-14T17:32:09.605Z,18.62
2017-12-14T17:34:37.146Z,13.68
2017-12-14T17:37:04.583Z,18.42
2017-12-14T17:39:32.016Z,15.88
2017-12-14T17:41:59.476Z,15.30
2017-12-14T17:44:26.912Z,16.17
2017-12-14T17:46:54.350Z,17.00
2017-12-14T17:49:21.784Z,16.70
2017-12-14T17:51:49.225Z,18.50
2017-12-14T17:54:16.656Z,18.42
2017-12-14T17:56:44.209Z,20.48
2017-12-14T17:59:11.643Z,17.58
2017-12-14T18:01:39.080Z,22.08
2017-12-14T18:04:06.904Z,21.20
2017-12-14T18:06:34.351Z,25.45
2017-12-14T18:09:01.793Z,20.70
2017-12-14T18:11:29.224Z,21.52
2017-12-14T18:13:56.662Z,19.50
2017-12-14T18:16:24.103Z,20.30
2017-12-14T18:18:51.540Z,24.35
2017-12-14T18:21:18.975Z,19.85
2017-12-14T18:23:46.539Z,25.70
2017-12-14T18:26:13.960Z,27.40
2017-12-14T18:28:41.402Z,23.48
2017-12-14T18:31:09.231Z,21.27
2017-12-14T18:33:36.672Z,22.65
2017-12-14T18:36:04.332Z,22.42
2017-12-14T18:38:31.778Z,32.97
2017-12-14T18:40:59.200Z,22.98
2017-12-14T18:43:26.656Z,23.23
2017-12-14T18:45:54.091Z,26.27
2017-12-14T18:48:21.928Z,23.27
2017-12-14T18:50:49.481Z,25.55
2017-12-14T18:53:16.922Z,26.42
2017-12-14T18:55:44.354Z,25.00
2017-12-14T18:58:11.808Z,22.73
2017-12-14T19:00:39.249Z,22.50
2017-12-14T19:03:07.076Z,24.40
2017-12-14T19:05:34.825Z,24.08
2017-12-14T19:08:02.265Z,22.40
2017-12-14T19:10:29.704Z,22.65
2017-12-14T19:12:58.307Z,19.83
2017-12-14T19:15:25.746Z,21.70
2017-12-14T19:17:53.181Z,17.85
2017-12-14T19:20:20.640Z,24.45
2017-12-14T19:22:48.079Z,17.62
2017-12-14T19:25:15.912Z,18.83
2017-12-14T19:27:43.351Z,20.67
2017-12-14T19:30:10.793Z,23.45
2017-12-14T19:32:38.228Z,19.45
2017-12-14T19:35:06.024Z,20.35
2017-12-14T19:37:33.472Z,28.05
2017-12-14T19:40:01.194Z,20.20
2017-12-14T19:42:28.619Z,23.12
2017-12-14T19:44:56.058Z,26.60
2017-12-14T19:47:23.495Z,22.17
2017-12-14T19:49:51.276Z,23.90
2017-12-14T19:52:18.699Z,26.67
2017-12-14T19:54:46.147Z,26.58
2017-12-14T19:57:13.576Z,23.12
2017-12-14T19:59:41.412Z,22.33
2017-12-14T20:02:08.853Z,27.05
2017-12-14T20:04:36.296Z,21.10
2017-12-14T20:07:03.756Z,21.70
2017-12-14T20:09:31.196Z,30.55
2017-12-14T20:11:58.636Z,19.23
2017-12-14T20:14:26.328Z,25.50
2017-12-14T20:16:53.757Z,23.52
2017-12-14T20:19:21.192Z,26.30
2017-12-14T20:21:49.032Z,26.42
2017-12-14T20:24:16.489Z,20.08
2017-12-14T20:26:43.920Z,24.35
2017-12-14T20:29:11.359Z,22.62
2017-12-14T20:31:38.813Z,25.17
2017-12-14T20:34:06.487Z,28.30
2017-12-14T20:36:33.917Z,26.17
2017-12-14T20:39:01.352Z,24.98
2017-12-14T20:41:28.800Z,26.27
2017-12-14T20:43:56.631Z,25.83
2017-12-14T20:46:24.073Z,27.20
2017-12-14T20:48:51.556Z,30.73
2017-12-14T20:51:18.992Z,25.15
2017-12-14T20:53:46.432Z,25.83
2017-12-14T20:56:13.879Z,20.98
2017-12-14T20:58:41.316Z,21.95
2017-12-14T21:01:08.755Z,26.27
2017-12-14T21:03:36.588Z,24.52
2017-12-14T21:06:04.030Z,24.50
2017-12-14T21:08:31.460Z,25.70
2017-12-14T21:10:58.916Z,21.75
2017-12-14T21:13:26.367Z,25.65
2017-12-14T21:15:53.807Z,24.92
2017-12-14T21:18:21.248Z,27.73
2017-12-14T21:20:48.685Z,29.90
2017-12-14T21:23:16.540Z,26.37
2017-12-14T21:25:43.976Z,23.98
2017-12-14T21:28:11.415Z,27.70
2017-12-14T21:30:38.863Z,25.00
2017-12-14T21:33:06.300Z,23.33
2017-12-14T21:35:34.799Z,31.52
2017-12-14T21:38:02.783Z,25.98
2017-12-14T21:40:30.220Z,34.15
2017-12-14T21:42:57.889Z,27.02
2017-12-14T21:45:25.324Z,27.05
2017-12-14T21:47:52.764Z,32.13
2017-12-14T21:50:20.227Z,29.65
2017-12-14T21:52:47.660Z,32.13
2017-12-14T21:55:15.496Z,31.80
2017-12-14T21:57:43.233Z,31.77
2017-12-14T22:00:10.672Z,26.35
2017-12-14T22:02:38.111Z,32.78
2017-12-14T22:05:05.576Z,33.08
2017-12-14T22:07:33.008Z,33.60
2017-12-14T22:10:00.844Z,36.60
2017-12-14T22:12:28.453Z,36.38
2017-12-14T22:14:55.900Z,37.97
2017-12-14T22:17:23.337Z,53.55
2017-12-14T22:19:52.008Z,32.83
2017-12-14T22:22:19.436Z,33.20
2017-12-14T22:24:46.871Z,35.10
2017-12-14T22:27:14.317Z,36.20
2017-12-14T22:29:41.763Z,28.75
2017-12-14T22:32:09.196Z,37.13
2017-12-14T22:34:37.420Z,36.37
2017-12-14T22:37:04.857Z,31.87
2017-12-14T22:39:32.293Z,36.22
2017-12-14T22:41:59.749Z,34.85
2017-12-14T22:44:27.183Z,33.70
2017-12-14T22:46:55.020Z,33.45
2017-12-14T22:49:22.462Z,36.50
2017-12-14T22:51:49.904Z,34.45
2017-12-14T22:54:17.363Z,32.95
2017-12-14T22:56:44.791Z,34.83
2017-12-14T22:59:12.237Z,35.63
2017-12-14T23:01:39.686Z,37.58
2017-12-14T23:04:07.125Z,35.97
2017-12-14T23:06:34.964Z,37.90
2017-12-14T23:09:02.427Z,35.07
2017-12-14T23:11:29.860Z,31.17
2017-12-14T23:13:57.292Z,34.60
2017-12-14T23:16:24.753Z,32.75
2017-12-14T23:18:52.192Z,34.85
2017-12-14T23:21:19.631Z,35.75
2017-12-14T23:23:47.491Z,35.35
2017-12-14T23:26:15.353Z,43.20
2017-12-14T23:28:42.755Z,27.67
2017-12-14T23:31:10.213Z,38.08
2017-12-14T23:33:37.653Z,42.70
2017-12-14T23:36:05.088Z,35.33
2017-12-14T23:38:32.551Z,41.42
2017-12-14T23:40:59.993Z,32.05
2017-12-14T23:43:27.819Z,39.93
2017-12-14T23:45:55.462Z,37.67
2017-12-14T23:48:22.896Z,41.05
2017-12-14T23:50:50.332Z,53.37
2017-12-14T23:53:17.790Z,39.28
2017-12-14T23:55:45.254Z,32.25
2017-12-14T23:58:12.692Z,34.67
